createdAt,value
2022-09-28T00:01:15.408Z,4.25
2022-09-28T00:03:42.405Z,3.70
2022-09-28T00:06:12.937Z,4.55
2022-09-28T00:08:40.728Z,3.63
2022-09-28T00:11:11.152Z,4.10
2022-09-28T00:13:38.686Z,4.05
2022-09-28T00:16:08.651Z,3.92
2022-09-28T00:18:36.649Z,4.05
2022-09-28T00:21:05.692Z,3.90
2022-09-28T00:23:33.410Z,3.97
2022-09-28T00:26:05.665Z,3.63
2022-09-28T00:28:32.683Z,4.03
2022-09-28T00:31:00.858Z,3.65
2022-09-28T00:33:27.560Z,3.50
2022-09-28T00:35:58.702Z,4.00
2022-09-28T00:38:29.985Z,3.72
2022-09-28T00:40:57.041Z,3.92
2022-09-28T00:43:25.228Z,3.85
2022-09-28T00:46:07.222Z,3.83
2022-09-28T00:48:39.692Z,3.33
2022-09-28T00:51:11.584Z,3.60
2022-09-28T00:53:43.441Z,3.55
2022-09-28T00:56:19.493Z,3.42
2022-09-28T00:58:49.744Z,3.63
2022-09-28T01:01:17.226Z,4.30
2022-09-28T01:03:48.879Z,3.22
2022-09-28T01:06:20.479Z,3.58
2022-09-28T01:08:51.276Z,3.45
2022-09-28T01:11:19.686Z,3.60
2022-09-28T01:13:48.924Z,3.28
2022-09-28T01:16:34.240Z,3.97
2022-09-28T01:19:28.950Z,3.50
2022-09-28T01:22:21.225Z,3.35
2022-09-28T01:24:56.064Z,3.20
2022-09-28T01:27:54.588Z,3.03
2022-09-28T01:30:22.064Z,3.47
2022-09-28T01:33:08.584Z,2.97
2022-09-28T01:35:46.102Z,2.92
2022-09-28T01:38:26.763Z,3.55
2022-09-28T01:40:55.419Z,3.03
2022-09-28T01:43:28.197Z,3.05
2022-09-28T01:46:02.147Z,2.50
2022-09-28T01:49:00.916Z,2.88
2022-09-28T01:51:37.344Z,3.40
2022-09-28T01:54:20.026Z,3.33
2022-09-28T01:57:11.898Z,3.50
2022-09-28T01:59:43.305Z,3.10
2022-09-28T02:02:16.470Z,3.00
2022-09-28T02:04:49.693Z,3.28
2022-09-28T02:07:36.769Z,3.20
2022-09-28T02:10:18.431Z,3.20
2022-09-28T02:13:24.001Z,3.22
2022-09-28T02:16:17.012Z,2.85
2022-09-28T02:18:45.266Z,3.05
2022-09-28T02:21:31.657Z,2.55
2022-09-28T02:26:44.660Z,3.08
2022-09-28T02:29:11.968Z,2.60
2022-09-28T02:31:38.837Z,2.70
2022-09-28T02:34:06.302Z,3.70
2022-09-28T02:36:33.958Z,2.78
2022-09-28T02:39:02.346Z,2.80
2022-09-28T02:41:40.986Z,2.90
2022-09-28T02:44:22.865Z,2.90
2022-09-28T02:46:57.087Z,3.17
2022-09-28T02:49:37.476Z,2.88
2022-09-28T02:52:22.380Z,2.75
2022-09-28T02:55:07.614Z,3.47
2022-09-28T02:58:07.640Z,2.70
2022-09-28T03:00:45.240Z,2.90
2022-09-28T03:03:31.325Z,2.90
2022-09-28T03:06:10.067Z,2.63
2022-09-28T03:09:13.374Z,2.78
2022-09-28T03:11:53.971Z,2.38
2022-09-28T03:14:21.278Z,3.13
2022-09-28T03:16:48.431Z,2.60
2022-09-28T03:19:19.399Z,2.58
2022-09-28T03:21:46.286Z,2.60
2022-09-28T03:24:13.904Z,2.45
2022-09-28T03:26:40.792Z,3.00
2022-09-28T03:29:08.557Z,2.50
2022-09-28T03:31:35.485Z,2.60
2022-09-28T03:34:02.399Z,2.63
2022-09-28T03:36:29.963Z,2.50
2022-09-28T03:38:59.913Z,2.70
2022-09-28T03:41:30.200Z,2.60
2022-09-28T03:43:56.950Z,2.42
2022-09-28T03:46:23.708Z,2.65
2022-09-28T03:48:50.417Z,2.50
2022-09-28T03:51:18.712Z,2.50
2022-09-28T03:53:46.585Z,2.85
2022-09-28T03:56:15.566Z,2.30
2022-09-28T03:58:42.614Z,2.70
2022-09-28T04:01:18.326Z,2.60
2022-09-28T04:03:46.452Z,2.60
2022-09-28T04:06:13.849Z,2.50
2022-09-28T04:08:43.907Z,2.85
2022-09-28T04:11:10.748Z,2.30
2022-09-28T04:13:41.263Z,2.85
2022-09-28T04:16:11.238Z,2.45
2022-09-28T04:18:38.740Z,2.60
2022-09-28T04:21:09.128Z,2.90
2022-09-28T04:23:37.620Z,2.20
2022-09-28T04:26:07.962Z,2.63
2022-09-28T04:28:53.998Z,2.45
2022-09-28T04:33:51.775Z,2.50
2022-09-28T04:36:19.957Z,2.22
2022-09-28T04:38:53.272Z,2.33
2022-09-28T04:41:24.844Z,2.50
2022-09-28T04:43:54.717Z,2.42
2022-09-28T04:46:21.937Z,2.38
2022-09-28T04:48:50.260Z,2.22
2022-09-28T04:51:17.426Z,2.40
2022-09-28T04:53:45.667Z,2.38
2022-09-28T04:56:13.899Z,2.45
2022-09-28T04:58:42.204Z,2.53
2022-09-28T05:01:12.993Z,2.72
2022-09-28T05:03:40.542Z,2.58
2022-09-28T05:06:08.007Z,2.40
2022-09-28T05:08:35.790Z,2.45
2022-09-28T05:11:05.511Z,2.63
2022-09-28T05:13:41.643Z,2.67
2022-09-28T05:16:10.297Z,2.88
2022-09-28T05:18:37.163Z,2.28
2022-09-28T05:21:08.988Z,2.40
2022-09-28T05:23:35.690Z,2.78
2022-09-28T05:26:02.724Z,2.58
2022-09-28T05:28:31.678Z,2.55
2022-09-28T05:31:00.122Z,2.85
2022-09-28T05:33:27.314Z,2.78
2022-09-28T05:35:57.882Z,2.65
2022-09-28T05:38:27.739Z,2.65
2022-09-28T05:40:54.632Z,2.88
2022-09-28T05:43:21.462Z,3.00
2022-09-28T05:45:52.825Z,2.50
2022-09-28T05:48:22.222Z,2.75
2022-09-28T05:50:52.811Z,2.78
2022-09-28T05:53:19.922Z,3.40
2022-09-28T05:55:46.903Z,6.10
2022-09-28T05:58:13.605Z,8.90
2022-09-28T06:00:40.568Z,10.20
2022-09-28T06:03:11.304Z,11.80
2022-09-28T06:05:44.278Z,13.60
2022-09-28T06:08:11.666Z,16.02
2022-09-28T06:10:39.535Z,16.58
2022-09-28T06:13:06.865Z,17.17
2022-09-28T06:15:36.244Z,16.85
2022-09-28T06:18:05.773Z,16.55
2022-09-28T06:20:41.214Z,15.73
2022-09-28T06:23:10.183Z,14.90
2022-09-28T06:25:37.625Z,14.70
2022-09-28T06:28:13.334Z,15.35
2022-09-28T06:30:41.859Z,16.08
2022-09-28T06:33:12.725Z,19.73
2022-09-28T06:35:43.754Z,18.90
2022-09-28T06:38:10.981Z,18.23
2022-09-28T06:40:38.502Z,17.40
2022-09-28T06:43:12.034Z,15.85
2022-09-28T06:45:39.107Z,16.15
2022-09-28T06:48:06.265Z,15.70
2022-09-28T06:50:39.408Z,15.77
2022-09-28T06:53:09.420Z,15.80
2022-09-28T06:55:40.231Z,15.55
2022-09-28T06:58:13.437Z,15.20
2022-09-28T07:00:41.095Z,16.15
2022-09-28T07:03:16.770Z,13.75
2022-09-28T07:05:52.631Z,14.68
2022-09-28T07:08:20.515Z,13.65
2022-09-28T07:10:49.749Z,13.30
2022-09-28T07:13:44.898Z,11.73
2022-09-28T07:16:04.096Z,12.73
2022-09-28T07:18:31.015Z,12.27
2022-09-28T07:20:58.686Z,11.35
2022-09-28T07:23:29.886Z,9.93
2022-09-28T07:25:58.362Z,11.35
2022-09-28T07:28:26.172Z,11.07
2022-09-28T07:30:53.027Z,10.88
2022-09-28T07:33:20.028Z,9.35
2022-09-28T07:35:55.792Z,9.15
2022-09-28T07:41:08.573Z,9.55
2022-09-28T07:43:36.958Z,8.80
2022-09-28T07:46:04.493Z,9.18
2022-09-28T07:48:37.257Z,9.52
2022-09-28T07:51:04.973Z,10.13
2022-09-28T07:53:34.488Z,9.65
2022-09-28T07:56:09.976Z,10.20
2022-09-28T07:58:39.612Z,8.75
2022-09-28T08:01:10.243Z,9.23
2022-09-28T08:03:37.974Z,9.95
2022-09-28T08:06:07.489Z,9.05
2022-09-28T08:08:41.455Z,9.60
2022-09-28T08:11:11.027Z,8.57
2022-09-28T08:13:40.499Z,9.00
2022-09-28T08:16:08.918Z,9.18
2022-09-28T08:18:36.262Z,8.93
2022-09-28T08:21:23.439Z,9.02
2022-09-28T08:23:51.792Z,8.80
2022-09-28T08:26:18.636Z,8.75
2022-09-28T08:28:49.664Z,8.05
2022-09-28T08:31:17.021Z,7.82
2022-09-28T08:33:43.814Z,7.03
2022-09-28T08:36:10.872Z,7.75
2022-09-28T08:38:37.858Z,8.13
2022-09-28T08:41:51.135Z,7.85
2022-09-28T08:44:31.497Z,7.38
2022-09-28T08:47:07.590Z,7.45
2022-09-28T08:49:44.465Z,7.90
2022-09-28T08:52:27.306Z,6.88
2022-09-28T08:55:01.290Z,8.82
2022-09-28T08:57:42.300Z,8.23
2022-09-28T09:00:19.915Z,7.18
2022-09-28T09:02:48.009Z,7.22
2022-09-28T09:05:22.658Z,7.18
2022-09-28T09:07:57.136Z,7.28
2022-09-28T09:10:53.311Z,7.65
2022-09-28T09:13:41.329Z,6.95
2022-09-28T09:16:28.381Z,6.78
2022-09-28T09:19:11.881Z,7.57
2022-09-28T09:21:44.583Z,7.20
2022-09-28T09:24:44.397Z,7.82
2022-09-28T09:27:38.464Z,10.40
2022-09-28T09:30:31.356Z,20.98
2022-09-28T09:33:24.157Z,25.55
2022-09-28T09:36:28.325Z,24.02
2022-09-28T09:39:08.779Z,19.63
2022-09-28T09:41:41.653Z,21.42
2022-09-28T09:44:23.520Z,19.65
2022-09-28T09:46:56.014Z,19.50
2022-09-28T09:49:29.320Z,18.88
2022-09-28T09:52:17.537Z,20.13
2022-09-28T09:54:55.777Z,18.65
2022-09-28T09:57:51.783Z,19.00
2022-09-28T10:00:19.448Z,17.90
2022-09-28T10:02:48.744Z,16.63
2022-09-28T10:05:24.218Z,17.10
2022-09-28T10:08:05.025Z,17.25
2022-09-28T10:11:17.108Z,17.05
2022-09-28T10:13:44.660Z,17.23
2022-09-28T10:16:11.599Z,16.60
2022-09-28T10:18:38.945Z,16.35
2022-09-28T10:21:06.029Z,15.63
2022-09-28T10:23:36.405Z,14.98
2022-09-28T10:26:10.134Z,15.48
2022-09-28T10:28:55.424Z,14.63
2022-09-28T10:31:40.937Z,15.47
2022-09-28T10:34:14.077Z,12.70
2022-09-28T10:37:04.043Z,14.20
2022-09-28T10:39:37.352Z,13.43
2022-09-28T10:42:12.766Z,13.48
2022-09-28T10:44:51.394Z,13.10
2022-09-28T10:47:21.842Z,12.25
2022-09-28T10:49:51.709Z,13.55
2022-09-28T10:52:31.955Z,13.68
2022-09-28T10:54:58.902Z,11.50
2022-09-28T10:57:36.895Z,13.50
2022-09-28T11:00:28.679Z,12.90
2022-09-28T11:02:55.866Z,12.32
2022-09-28T11:05:27.882Z,14.15
2022-09-28T11:07:56.950Z,12.75
2022-09-28T11:10:27.162Z,12.30
2022-09-28T11:12:57.704Z,12.35
2022-09-28T11:15:31.515Z,12.85
2022-09-28T11:18:29.495Z,11.57
2022-09-28T11:21:14.634Z,16.73
2022-09-28T11:23:44.780Z,16.63
2022-09-28T11:26:17.651Z,17.92
2022-09-28T11:28:51.547Z,16.85
2022-09-28T11:31:26.373Z,17.38
2022-09-28T11:34:30.964Z,16.43
2022-09-28T11:37:28.333Z,16.25
2022-09-28T11:40:27.980Z,15.93
2022-09-28T11:43:47.325Z,14.88
2022-09-28T11:46:40.277Z,14.82
2022-09-28T11:49:37.688Z,15.32
2022-09-28T11:52:11.294Z,14.02
2022-09-28T11:54:42.826Z,13.80
2022-09-28T11:57:17.894Z,12.93
2022-09-28T12:00:09.147Z,13.30
2022-09-28T12:03:01.493Z,12.70
2022-09-28T12:05:34.068Z,12.40
2022-09-28T12:08:35.257Z,11.48
2022-09-28T12:11:11.546Z,13.48
2022-09-28T12:14:05.400Z,12.88
2022-09-28T12:19:51.477Z,11.50
2022-09-28T12:22:34.961Z,13.50
2022-09-28T12:25:04.745Z,13.77
2022-09-28T12:27:49.257Z,14.60
2022-09-28T12:30:22.283Z,12.38
2022-09-28T12:33:05.532Z,12.60
2022-09-28T12:35:51.231Z,12.35
2022-09-28T12:38:37.000Z,12.23
2022-09-28T12:41:24.430Z,11.38
2022-09-28T12:44:13.111Z,12.50
2022-09-28T12:46:59.303Z,11.85
2022-09-28T12:52:29.330Z,12.32
2022-09-28T12:55:22.356Z,11.85
2022-09-28T12:58:25.570Z,11.35
2022-09-28T13:01:19.393Z,10.95
2022-09-28T13:04:30.268Z,11.35
2022-09-28T13:07:03.185Z,11.20
2022-09-28T13:09:48.121Z,11.52
2022-09-28T13:12:39.680Z,11.13
2022-09-28T13:15:24.816Z,13.18
2022-09-28T13:18:03.613Z,16.70
2022-09-28T13:20:38.148Z,16.23
2022-09-28T13:23:12.725Z,17.38
2022-09-28T13:25:46.830Z,17.30
2022-09-28T13:28:18.141Z,17.52
2022-09-28T13:30:53.401Z,17.73
2022-09-28T13:33:35.935Z,16.00
2022-09-28T13:36:22.011Z,15.80
2022-09-28T13:38:49.896Z,14.15
2022-09-28T13:41:38.203Z,13.98
2022-09-28T13:44:16.792Z,14.70
2022-09-28T13:47:06.901Z,14.73
2022-09-28T13:50:03.653Z,14.73
2022-09-28T13:52:50.410Z,14.90
2022-09-28T13:55:29.941Z,14.20
2022-09-28T13:58:28.126Z,13.77
2022-09-28T14:01:19.577Z,14.55
2022-09-28T14:04:19.430Z,13.63
2022-09-28T14:07:20.503Z,14.32
2022-09-28T14:10:07.830Z,15.05
2022-09-28T14:12:34.535Z,14.88
2022-09-28T14:15:02.485Z,14.23
2022-09-28T14:17:50.318Z,16.08
2022-09-28T14:20:19.384Z,15.10
2022-09-28T14:23:05.541Z,14.93
2022-09-28T14:28:49.128Z,16.17
2022-09-28T14:31:26.694Z,16.73
2022-09-28T14:33:57.674Z,16.17
2022-09-28T14:37:17.910Z,15.85
2022-09-28T14:40:04.563Z,17.13
2022-09-28T14:42:32.262Z,17.63
2022-09-28T14:45:06.110Z,16.65
2022-09-28T14:47:43.121Z,15.60
2022-09-28T14:53:04.589Z,14.82
2022-09-28T14:55:43.289Z,14.80
2022-09-28T14:58:24.996Z,15.25
2022-09-28T15:00:59.434Z,14.95
2022-09-28T15:03:34.329Z,16.27
2022-09-28T15:06:01.681Z,15.40
2022-09-28T15:08:41.797Z,13.88
2022-09-28T15:11:27.488Z,13.27
2022-09-28T15:14:07.445Z,14.10
2022-09-28T15:16:37.634Z,13.13
2022-09-28T15:19:06.319Z,12.50
2022-09-28T15:21:40.856Z,13.30
2022-09-28T15:24:28.964Z,14.48
2022-09-28T15:26:56.850Z,13.27
2022-09-28T15:29:25.694Z,13.73
2022-09-28T15:31:54.616Z,14.35
2022-09-28T15:34:52.155Z,14.32
2022-09-28T15:37:24.446Z,13.65
2022-09-28T15:39:53.710Z,14.18
2022-09-28T15:42:21.034Z,23.10
2022-09-28T15:45:14.446Z,21.10
2022-09-28T15:47:44.892Z,19.00
2022-09-28T15:50:25.217Z,19.75
2022-09-28T15:53:04.168Z,18.38
2022-09-28T15:55:33.120Z,18.15
2022-09-28T15:58:20.209Z,17.20
2022-09-28T16:00:49.471Z,17.40
2022-09-28T16:03:21.070Z,18.45
2022-09-28T16:05:52.749Z,16.63
2022-09-28T16:08:38.073Z,17.30
2022-09-28T16:11:19.727Z,17.95
2022-09-28T16:14:01.917Z,16.80
2022-09-28T16:16:47.051Z,16.38
2022-09-28T16:19:42.120Z,16.15
2022-09-28T16:22:16.417Z,15.43
2022-09-28T16:24:55.326Z,16.42
2022-09-28T16:27:38.925Z,16.55
2022-09-28T16:30:27.297Z,16.17
2022-09-28T16:33:02.612Z,17.45
2022-09-28T16:35:45.228Z,16.20
2022-09-28T16:38:16.604Z,16.27
2022-09-28T16:40:54.517Z,15.80
2022-09-28T16:43:28.769Z,16.27
2022-09-28T16:46:22.804Z,15.57
2022-09-28T16:48:50.828Z,15.90
2022-09-28T16:51:22.918Z,15.35
2022-09-28T16:54:08.685Z,14.52
2022-09-28T16:56:37.340Z,15.48
2022-09-28T16:59:05.374Z,15.13
2022-09-28T17:01:32.885Z,14.75
2022-09-28T17:03:59.715Z,13.73
2022-09-28T17:06:27.486Z,13.50
2022-09-28T17:08:58.682Z,13.95
2022-09-28T17:11:26.075Z,14.15
2022-09-28T17:13:59.433Z,13.93
2022-09-28T17:17:03.802Z,13.65
2022-09-28T17:19:24.100Z,13.10
2022-09-28T17:21:52.115Z,13.50
2022-09-28T17:24:19.592Z,13.95
2022-09-28T17:26:49.073Z,14.32
2022-09-28T17:29:16.644Z,14.18
2022-09-28T17:31:46.536Z,13.18
2022-09-28T17:34:16.282Z,14.10
2022-09-28T17:36:44.355Z,13.70
2022-09-28T17:39:15.455Z,13.95
2022-09-28T17:41:43.250Z,14.65
2022-09-28T17:44:10.302Z,13.07
2022-09-28T17:46:47.429Z,13.57
2022-09-28T17:49:15.185Z,13.80
2022-09-28T17:51:42.720Z,13.82
2022-09-28T17:54:09.551Z,12.57
2022-09-28T17:56:36.994Z,13.02
2022-09-28T17:59:08.209Z,11.98
2022-09-28T18:01:40.022Z,13.13
2022-09-28T18:04:13.212Z,12.90
2022-09-28T18:06:45.836Z,12.38
2022-09-28T18:09:14.959Z,12.68
2022-09-28T18:11:44.418Z,12.05
2022-09-28T18:14:11.534Z,12.10
2022-09-28T18:16:38.975Z,11.65
2022-09-28T18:19:05.993Z,13.55
2022-09-28T18:21:32.930Z,11.27
2022-09-28T18:23:59.909Z,12.10
2022-09-28T18:26:26.665Z,12.70
2022-09-28T18:28:56.746Z,12.43
2022-09-28T18:31:24.161Z,10.93
2022-09-28T18:33:51.015Z,12.32
2022-09-28T18:36:17.772Z,12.10
2022-09-28T18:38:51.363Z,11.65
2022-09-28T18:41:18.019Z,13.23
2022-09-28T18:43:51.161Z,13.75
2022-09-28T18:46:18.799Z,11.98
2022-09-28T18:48:46.350Z,12.77
2022-09-28T18:51:13.121Z,13.73
2022-09-28T18:53:40.460Z,12.88
2022-09-28T18:56:09.432Z,13.75
2022-09-28T18:58:37.881Z,14.15
2022-09-28T19:04:05.568Z,12.95
2022-09-28T19:06:38.493Z,12.82
2022-09-28T19:09:05.386Z,13.13
2022-09-28T19:11:32.677Z,13.32
2022-09-28T19:14:00.820Z,13.45
2022-09-28T19:16:29.222Z,13.32
2022-09-28T19:18:58.679Z,13.57
2022-09-28T19:21:25.528Z,11.55
2022-09-28T19:23:55.433Z,12.90
2022-09-28T19:26:27.538Z,13.43
2022-09-28T19:28:56.874Z,14.02
2022-09-28T19:31:24.255Z,12.57
2022-09-28T19:33:51.044Z,12.07
2022-09-28T19:36:21.826Z,11.88
2022-09-28T19:38:53.301Z,12.00
2022-09-28T19:41:43.569Z,12.95
2022-09-28T19:44:10.747Z,13.50
2022-09-28T19:46:40.362Z,12.82
2022-09-28T19:49:22.598Z,13.15
2022-09-28T19:52:11.619Z,12.05
2022-09-28T19:54:38.207Z,12.13
2022-09-28T19:57:08.023Z,11.68
2022-09-28T19:59:36.589Z,10.98
2022-09-28T20:02:04.662Z,12.07
2022-09-28T20:04:33.137Z,10.93
2022-09-28T20:07:00.193Z,11.00
2022-09-28T20:09:26.924Z,10.93
2022-09-28T20:11:53.655Z,11.43
2022-09-28T20:14:24.682Z,10.63
2022-09-28T20:16:55.261Z,10.63
2022-09-28T20:19:23.269Z,10.85
2022-09-28T20:21:51.143Z,9.95
2022-09-28T20:24:18.521Z,10.50
2022-09-28T20:26:46.128Z,9.85
2022-09-28T20:29:13.277Z,10.55
2022-09-28T20:31:40.304Z,11.15
2022-09-28T20:34:08.010Z,9.70
2022-09-28T20:36:34.873Z,10.35
2022-09-28T20:39:04.608Z,9.82
2022-09-28T20:41:36.904Z,9.93
2022-09-28T20:44:06.628Z,10.23
2022-09-28T20:46:36.834Z,10.68
2022-09-28T20:49:05.297Z,10.23
2022-09-28T20:51:32.498Z,10.13
2022-09-28T20:54:01.469Z,9.30
2022-09-28T20:56:43.413Z,11.77
2022-09-28T20:59:11.969Z,9.98
2022-09-28T21:01:39.335Z,10.38
2022-09-28T21:04:08.970Z,9.23
2022-09-28T21:06:38.000Z,9.88
2022-09-28T21:09:06.542Z,10.55
2022-09-28T21:11:35.520Z,9.55
2022-09-28T21:14:04.588Z,9.43
2022-09-28T21:16:33.545Z,9.15
2022-09-28T21:19:00.900Z,8.63
2022-09-28T21:21:28.518Z,9.95
2022-09-28T21:23:58.516Z,9.80
2022-09-28T21:26:28.195Z,9.43
2022-09-28T21:29:06.654Z,8.95
2022-09-28T21:31:41.857Z,8.50
2022-09-28T21:34:19.961Z,8.35
2022-09-28T21:36:48.302Z,9.23
2022-09-28T21:39:15.219Z,8.68
2022-09-28T21:41:42.018Z,8.15
2022-09-28T21:44:08.800Z,8.95
2022-09-28T21:46:36.863Z,8.40
2022-09-28T21:49:07.696Z,8.52
2022-09-28T21:51:35.936Z,8.27
2022-09-28T21:54:02.722Z,8.15
2022-09-28T21:56:29.678Z,8.45
2022-09-28T21:58:56.485Z,8.02
2022-09-28T22:01:25.748Z,8.48
2022-09-28T22:03:55.608Z,8.30
2022-09-28T22:06:24.813Z,7.75
2022-09-28T22:08:51.801Z,7.97
2022-09-28T22:11:21.679Z,8.68
2022-09-28T22:13:50.874Z,8.15
2022-09-28T22:16:19.533Z,7.95
2022-09-28T22:18:48.013Z,7.55
2022-09-28T22:21:20.785Z,7.93
2022-09-28T22:23:48.393Z,8.25
2022-09-28T22:26:21.553Z,8.60
2022-09-28T22:28:54.720Z,7.53
2022-09-28T22:31:25.366Z,7.22
2022-09-28T22:33:53.005Z,8.00
2022-09-28T22:36:20.003Z,7.68
2022-09-28T22:38:48.575Z,7.80
2022-09-28T22:41:17.577Z,7.65
2022-09-28T22:43:44.473Z,8.55
2022-09-28T22:46:14.070Z,7.88
2022-09-28T22:48:42.633Z,8.27
2022-09-28T22:51:10.339Z,7.25
2022-09-28T22:53:37.838Z,7.30
2022-09-28T22:56:05.717Z,7.90
2022-09-28T22:58:33.918Z,6.97
2022-09-28T23:01:10.399Z,7.22
2022-09-28T23:03:40.086Z,7.25
2022-09-28T23:06:08.179Z,7.82
2022-09-28T23:08:35.752Z,7.38
2022-09-28T23:11:02.622Z,6.18
2022-09-28T23:13:31.070Z,7.45
2022-09-28T23:15:59.933Z,7.00
2022-09-28T23:18:29.727Z,7.20
2022-09-28T23:20:58.940Z,6.95
2022-09-28T23:23:26.652Z,7.00
2022-09-28T23:25:54.281Z,6.32
2022-09-28T23:28:23.536Z,6.72
2022-09-28T23:30:51.079Z,5.82
2022-09-28T23:33:19.390Z,7.10
2022-09-28T23:35:47.298Z,6.55
2022-09-28T23:38:18.109Z,6.55
2022-09-28T23:40:46.326Z,6.75
2022-09-28T23:43:14.694Z,6.18
2022-09-28T23:45:44.728Z,6.30
2022-09-28T23:48:15.256Z,6.18
2022-09-28T23:50:45.260Z,6.65
2022-09-28T23:53:14.159Z,6.38
2022-09-28T23:55:44.336Z,6.15
2022-09-28T23:58:11.944Z,6.40
